Time;durP1;ratioP1;P1;durP2;ratioP2;P2;SDS_P1;SDS_P2;PMS_P1;PMS_P2;Temp;Humidity;BMP_temperature;BMP_pressure;BME280_temperature;BME280_humidity;BME280_pressure;Samples;Min_cycle;Max_cycle;Signal;HPM_P1;HPM_P2
2023/07/22 00:02:00;;;;;;;16.00;12.40;;;;;;;17.46;90.39;97410.92;107245;1275;22634;-78
2023/07/22 00:04:28;;;;;;;14.70;12.70;;;;;;;17.48;90.54;97413.46;107216;1275;24364;-78
2023/07/22 00:06:56;;;;;;;12.40;10.90;;;;;;;17.51;90.73;97410.56;107230;1275;22553;-78
2023/07/22 00:09:24;;;;;;;16.60;14.90;;;;;;;17.51;90.79;97398.66;107216;1275;22552;-78
2023/07/22 00:11:52;;;;;;;15.70;14.20;;;;;;;17.55;91.18;97393.23;107204;1275;25400;-78
2023/07/22 00:14:20;;;;;;;16.00;14.20;;;;;;;17.60;91.18;97398.38;106889;1275;22518;-78
2023/07/22 00:16:48;;;;;;;17.10;15.60;;;;;;;17.60;91.05;97399.02;106932;1264;22540;-78
2023/07/22 00:19:16;;;;;;;18.70;17.00;;;;;;;17.61;91.33;97401.20;106899;1275;22522;-79
2023/07/22 00:21:48;;;;;;;18.70;16.90;;;;;;;17.62;91.61;97396.73;107223;1275;22525;-76
2023/07/22 00:24:16;;;;;;;17.10;15.30;;;;;;;17.63;91.35;97391.14;106876;1275;22986;-78
2023/07/22 00:26:44;;;;;;;19.60;17.30;;;;;;;17.61;91.34;97392.19;106732;1275;186705;-78
2023/07/22 00:29:12;;;;;;;17.20;15.20;;;;;;;17.59;91.51;97396.42;106928;1272;22535;-77
2023/07/22 00:31:41;;;;;;;16.60;15.00;;;;;;;17.56;91.56;97397.27;106963;1274;25461;-77
2023/07/22 00:34:10;;;;;;;17.70;16.10;;;;;;;17.53;92.06;97394.98;106914;1274;25116;-77
2023/07/22 00:36:38;;;;;;;17.40;15.90;;;;;;;17.54;92.41;97390.64;106950;1274;24255;-78
2023/07/22 00:39:06;;;;;;;17.30;15.60;;;;;;;17.57;92.47;97390.30;106927;1274;22836;-78
2023/07/22 00:41:34;;;;;;;15.10;13.60;;;;;;;17.56;92.13;97389.27;106944;1274;24364;-78
2023/07/22 00:44:02;;;;;;;13.50;12.10;;;;;;;17.54;92.21;97385.27;106924;1274;24364;-78
2023/07/22 00:46:30;;;;;;;13.10;11.70;;;;;;;17.56;92.84;97372.54;106895;1274;22555;-78
2023/07/22 00:48:59;;;;;;;12.10;10.70;;;;;;;17.64;92.85;97376.06;106943;1274;22535;-78
2023/07/22 00:51:27;;;;;;;15.60;12.40;;;;;;;17.61;92.59;97374.27;106927;1274;23242;-78
2023/07/22 00:53:56;;;;;;;14.90;13.50;;;;;;;17.57;92.92;97370.91;106911;1274;22525;-78
2023/07/22 00:56:24;;;;;;;16.80;13.00;;;;;;;17.52;92.74;97364.51;106903;1274;26406;-78
2023/07/22 00:58:53;;;;;;;13.50;11.70;;;;;;;17.44;92.80;97355.46;107060;1272;22770;-78
2023/07/22 01:01:21;;;;;;;14.70;12.70;;;;;;;17.40;92.89;97356.55;106968;1274;24367;-78
2023/07/22 01:03:49;;;;;;;19.20;11.90;;;;;;;17.37;92.69;97354.23;106989;1274;22609;-78
2023/07/22 01:06:18;;;;;;;14.10;12.00;;;;;;;17.34;93.00;97348.64;106977;1274;24406;-79
2023/07/22 01:08:46;;;;;;;12.40;11.20;;;;;;;17.33;92.80;97344.73;107124;1274;25421;-79
2023/07/22 01:11:14;;;;;;;13.50;10.90;;;;;;;17.38;93.54;97342.36;107084;1274;22630;-78
2023/07/22 01:13:43;;;;;;;11.80;10.50;;;;;;;17.41;93.53;97342.35;107085;1251;24219;-78
2023/07/22 01:16:12;;;;;;;12.10;10.90;;;;;;;17.45;93.75;97344.69;107136;1274;22630;-78
2023/07/22 01:18:40;;;;;;;11.10;10.00;;;;;;;17.51;93.92;97346.21;107029;1274;22610;-78
2023/07/22 01:21:08;;;;;;;14.20;11.10;;;;;;;17.63;94.12;97339.14;106961;1274;24353;-78
2023/07/22 01:23:38;;;;;;;12.30;10.70;;;;;;;17.62;93.03;97337.02;107088;1274;24243;-78
2023/07/22 01:26:06;;;;;;;11.00;9.80;;;;;;;17.56;93.04;97343.28;107043;1274;24743;-77
2023/07/22 01:28:37;;;;;;;11.60;10.50;;;;;;;17.59;93.38;97345.29;106950;1275;22635;-77
2023/07/22 01:31:05;;;;;;;12.20;10.50;;;;;;;17.54;92.65;97350.30;106916;1274;24321;-78
2023/07/22 01:33:33;;;;;;;12.90;11.70;;;;;;;17.47;93.25;97351.02;106955;1274;25204;-78
2023/07/22 01:36:03;;;;;;;13.30;12.10;;;;;;;17.44;93.26;97354.23;106926;1274;22784;-78
2023/07/22 01:38:31;;;;;;;13.30;12.00;;;;;;;17.34;92.49;97356.89;106890;1274;22533;-78
2023/07/22 01:40:59;;;;;;;11.60;10.50;;;;;;;17.26;92.79;97360.94;107017;1274;22681;-78
2023/07/22 01:43:28;;;;;;;12.50;11.20;;;;;;;17.25;93.39;97364.25;106931;1274;22580;-78
2023/07/22 01:45:56;;;;;;;12.00;10.80;;;;;;;17.33;93.78;97366.05;106956;1274;24238;-77
2023/07/22 01:48:24;;;;;;;11.40;10.10;;;;;;;17.40;93.38;97366.52;106899;1275;22537;-78
2023/07/22 01:50:52;;;;;;;13.00;11.00;;;;;;;17.39;93.46;97369.59;106827;1274;25636;-77
2023/07/22 01:53:20;;;;;;;10.80;9.70;;;;;;;17.40;93.36;97374.07;106934;1274;22637;-78
2023/07/22 01:55:48;;;;;;;13.00;11.90;;;;;;;17.41;93.78;97376.65;106967;1274;22632;-78
2023/07/22 01:58:16;;;;;;;14.80;13.20;;;;;;;17.40;93.22;97377.70;106919;1275;22533;-78
2023/07/22 02:00:49;;;;;;;15.30;12.40;;;;;;;17.34;93.30;97381.02;106791;1275;23355;-78
2023/07/22 02:03:17;;;;;;;12.80;11.60;;;;;;;17.24;94.63;97380.16;106766;1275;24321;-79
2023/07/22 02:05:46;;;;;;;14.50;11.70;;;;;;;17.15;95.68;97382.55;106852;1275;25342;-78
2023/07/22 02:08:14;;;;;;;12.00;10.80;;;;;;;17.05;96.44;97385.81;106784;1275;24439;-78
2023/07/22 02:10:42;;;;;;;10.70;9.50;;;;;;;16.95;96.38;97380.59;106894;1275;24368;-78
2023/07/22 02:13:11;;;;;;;10.90;9.00;;;;;;;16.90;97.56;97374.17;106845;1275;22577;-78
2023/07/22 02:15:41;;;;;;;11.00;9.30;;;;;;;16.82;97.49;97369.62;106845;1275;25533;-78
2023/07/22 02:18:09;;;;;;;9.90;8.90;;;;;;;16.76;97.50;97373.67;106860;1275;22530;-78
2023/07/22 02:20:38;;;;;;;9.90;8.30;;;;;;;16.71;97.41;97368.97;106795;1275;24064;-78
2023/07/22 02:23:07;;;;;;;9.50;8.30;;;;;;;16.67;98.21;97370.73;106864;1275;22521;-78
2023/07/22 02:25:37;;;;;;;9.80;8.70;;;;;;;16.61;98.34;97375.93;106874;1275;22545;-78
2023/07/22 02:28:06;;;;;;;8.70;7.80;;;;;;;16.56;98.09;97380.65;106833;1253;22727;-78
2023/07/22 02:30:37;;;;;;;9.50;7.40;;;;;;;16.56;99.20;97381.25;106873;1275;24466;-78
2023/07/22 02:33:05;;;;;;;9.60;7.40;;;;;;;16.53;99.99;97382.41;106838;1275;25319;-78
2023/07/22 02:35:33;;;;;;;10.30;8.10;;;;;;;16.49;99.89;97386.20;106923;1261;24492;-80
2023/07/22 02:38:02;;;;;;;9.50;7.50;;;;;;;16.46;99.84;97384.97;106883;1275;22529;-77
2023/07/22 02:40:34;;;;;;;7.90;7.00;;;;;;;16.48;100.00;97387.52;106852;1275;22522;-77
2023/07/22 02:43:03;;;;;;;8.20;6.80;;;;;;;16.46;99.92;97392.27;106884;1275;22616;-79
2023/07/22 02:45:31;;;;;;;8.10;7.10;;;;;;;16.50;100.00;97395.77;106822;1275;25265;-79
2023/07/22 02:47:59;;;;;;;8.90;7.80;;;;;;;16.53;99.86;97398.27;106908;1275;24386;-79
2023/07/22 02:50:27;;;;;;;7.70;6.80;;;;;;;16.53;100.00;97400.05;106875;1275;22587;-79
2023/07/22 02:52:55;;;;;;;10.10;7.60;;;;;;;16.50;100.00;97398.27;106918;1275;25390;-78
2023/07/22 02:55:23;;;;;;;9.70;7.40;;;;;;;16.47;100.00;97400.20;106866;1275;22671;-78
2023/07/22 02:57:51;;;;;;;9.10;7.50;;;;;;;16.45;100.00;97407.23;106794;1275;22585;-78
2023/07/22 03:00:26;;;;;;;15.20;7.80;;;;;;;16.44;100.00;97410.17;106912;1274;22578;-77
2023/07/22 03:03:04;;;;;;;9.70;7.30;;;;;;;16.45;100.00;97413.21;106898;1271;25386;-78
2023/07/22 03:05:34;;;;;;;7.60;6.80;;;;;;;16.43;100.00;97415.11;107342;1275;25308;-78
2023/07/22 03:08:02;;;;;;;8.50;7.30;;;;;;;16.43;100.00;97421.63;107255;1275;22741;-78
2023/07/22 03:10:30;;;;;;;8.30;6.90;;;;;;;16.40;100.00;97423.48;107240;1275;23890;-78
2023/07/22 03:12:59;;;;;;;8.40;7.10;;;;;;;16.38;100.00;97425.08;107200;1275;26657;-78
2023/07/22 03:15:28;;;;;;;9.40;7.40;;;;;;;16.37;100.00;97424.52;107147;1275;24254;-78
2023/07/22 03:17:57;;;;;;;8.30;7.00;;;;;;;16.36;100.00;97422.68;107265;1275;22631;-78
2023/07/22 03:20:26;;;;;;;8.40;7.00;;;;;;;16.31;100.00;97426.39;107229;1275;25153;-78
2023/07/22 03:22:54;;;;;;;11.30;8.00;;;;;;;16.30;100.00;97432.77;107194;1275;24199;-77
2023/07/22 03:25:22;;;;;;;10.70;8.20;;;;;;;16.28;100.00;97434.45;107220;1275;25354;-78
2023/07/22 03:27:50;;;;;;;9.20;8.20;;;;;;;16.27;100.00;97444.90;106776;1275;24359;-78
2023/07/22 03:30:18;;;;;;;8.60;7.00;;;;;;;16.21;100.00;97445.91;107067;1275;22575;-78
2023/07/22 03:32:47;;;;;;;9.70;8.10;;;;;;;16.19;100.00;97444.70;107211;1261;24350;-79
2023/07/22 03:35:17;;;;;;;10.30;7.40;;;;;;;16.20;100.00;97450.98;107231;1275;22663;-79
2023/07/22 03:37:47;;;;;;;9.40;7.50;;;;;;;16.20;100.00;97455.04;107258;1275;22534;-79
2023/07/22 03:40:22;;;;;;;8.20;7.10;;;;;;;16.17;100.00;97458.52;107017;1275;23925;-77
2023/07/22 03:42:51;;;;;;;8.70;7.60;;;;;;;16.16;100.00;97464.41;106954;1275;22528;-79
2023/07/22 03:45:21;;;;;;;9.80;8.10;;;;;;;16.15;100.00;97457.84;107296;1275;24271;-78
2023/07/22 03:47:58;;;;;;;9.60;7.90;;;;;;;16.14;100.00;97460.54;107294;1275;22640;-77
2023/07/22 03:50:27;;;;;;;12.00;8.20;;;;;;;16.13;100.00;97463.00;107206;1275;23167;-78
2023/07/22 03:52:55;;;;;;;9.50;7.60;;;;;;;16.14;100.00;97465.73;107208;1275;22535;-79
2023/07/22 03:55:23;;;;;;;11.70;9.20;;;;;;;16.09;100.00;97465.92;107128;1275;22536;-79
2023/07/22 03:57:51;;;;;;;11.00;9.70;;;;;;;16.05;100.00;97467.05;107258;1274;22573;-79
2023/07/22 04:00:21;;;;;;;13.80;9.00;;;;;;;16.02;100.00;97467.98;107242;1274;22560;-79
2023/07/22 04:02:49;;;;;;;11.70;9.60;;;;;;;16.01;100.00;97471.05;107330;1274;22571;-79
2023/07/22 04:05:17;;;;;;;11.80;10.50;;;;;;;15.99;100.00;97476.50;107327;1274;22839;-79
2023/07/22 04:07:45;;;;;;;11.90;10.60;;;;;;;15.97;100.00;97473.96;107264;1274;22634;-79
2023/07/22 04:10:13;;;;;;;14.20;12.80;;;;;;;15.95;100.00;97475.38;106942;1274;22529;-77
2023/07/22 04:12:41;;;;;;;12.40;11.00;;;;;;;15.96;100.00;97477.50;106919;1274;25393;-78
2023/07/22 04:15:10;;;;;;;14.30;12.90;;;;;;;15.94;100.00;97484.95;106929;1274;24403;-78
2023/07/22 04:17:38;;;;;;;12.70;11.30;;;;;;;15.90;100.00;97487.88;106963;1274;25300;-78
2023/07/22 04:20:08;;;;;;;17.20;13.90;;;;;;;15.90;100.00;97495.58;106961;1274;22556;-79
2023/07/22 04:22:37;;;;;;;13.90;12.60;;;;;;;15.90;100.00;97492.86;107152;1274;25354;-79
2023/07/22 04:25:06;;;;;;;14.60;12.90;;;;;;;15.90;100.00;97493.00;107061;1274;22737;-79
2023/07/22 04:27:34;;;;;;;14.80;12.80;;;;;;;15.89;100.00;97491.27;107398;1274;23488;-79
2023/07/22 04:30:03;;;;;;;16.90;12.50;;;;;;;15.86;100.00;97487.23;107392;1274;22528;-78
2023/07/22 04:32:31;;;;;;;14.70;13.40;;;;;;;15.87;100.00;97486.33;107151;1274;22721;-82
2023/07/22 04:34:59;;;;;;;15.00;13.60;;;;;;;15.87;100.00;97479.90;107322;1274;23949;-77
2023/07/22 04:37:28;;;;;;;15.70;13.90;;;;;;;15.87;100.00;97488.51;107296;1274;23959;-78
2023/07/22 04:39:56;;;;;;;15.10;13.60;;;;;;;15.87;100.00;97483.77;106959;1257;22529;-78
2023/07/22 04:42:25;;;;;;;15.20;13.90;;;;;;;15.87;100.00;97484.31;106884;1274;22535;-77
2023/07/22 04:44:53;;;;;;;14.50;13.00;;;;;;;15.88;100.00;97497.23;106963;1274;22572;-77
2023/07/22 04:47:21;;;;;;;15.00;13.60;;;;;;;15.88;100.00;97512.20;107225;1274;22637;-78
2023/07/22 04:49:49;;;;;;;15.80;14.10;;;;;;;15.90;100.00;97510.80;106928;1274;22580;-79
2023/07/22 04:52:17;;;;;;;15.30;13.70;;;;;;;15.89;100.00;97516.58;106989;1274;22732;-83
2023/07/22 04:54:47;;;;;;;21.90;18.70;;;;;;;15.90;100.00;97522.21;107195;1269;22535;-84
2023/07/22 04:57:16;;;;;;;47.40;29.10;;;;;;;15.88;100.00;97524.47;107593;1275;22662;-84
2023/07/22 04:59:45;;;;;;;22.50;17.80;;;;;;;15.90;100.00;97528.96;109365;1271;22525;-86
2023/07/22 05:02:13;;;;;;;23.20;18.40;;;;;;;15.94;100.00;97530.98;107288;1274;22535;-87
2023/07/22 05:04:41;;;;;;;22.60;16.70;;;;;;;15.90;100.00;97533.30;107300;1267;25514;-86
2023/07/22 05:07:09;;;;;;;16.80;15.30;;;;;;;15.89;100.00;97532.02;107300;1273;22551;-84
2023/07/22 05:09:37;;;;;;;17.40;15.60;;;;;;;15.91;100.00;97524.34;107345;1267;22516;-85
2023/07/22 05:12:05;;;;;;;18.10;16.30;;;;;;;15.95;100.00;97534.54;107313;1274;25243;-85
2023/07/22 05:14:33;;;;;;;19.10;17.00;;;;;;;15.97;100.00;97542.44;107246;1263;25367;-87
2023/07/22 05:17:01;;;;;;;19.70;17.80;;;;;;;15.95;100.00;97545.10;107225;1270;22536;-85
2023/07/22 05:19:30;;;;;;;18.00;16.30;;;;;;;15.95;100.00;97544.77;107358;1274;22559;-84
2023/07/22 05:21:57;;;;;;;18.60;16.70;;;;;;;15.96;100.00;97548.14;107344;1275;22626;-85
2023/07/22 05:24:25;;;;;;;22.00;16.50;;;;;;;15.93;100.00;97554.89;107304;1275;22587;-85
2023/07/22 05:26:54;;;;;;;18.60;16.90;;;;;;;15.94;100.00;97558.89;107323;1275;25455;-84
2023/07/22 05:29:36;;;;;;;17.80;16.20;;;;;;;15.95;100.00;97560.83;107427;1275;22526;-85
2023/07/22 05:32:04;;;;;;;17.20;15.60;;;;;;;15.95;100.00;97561.14;107328;1275;25392;-85
2023/07/22 05:34:40;;;;;;;18.80;17.10;;;;;;;15.91;100.00;97560.73;107303;1275;22544;-85
2023/07/22 05:37:08;;;;;;;20.00;18.10;;;;;;;15.94;100.00;97565.70;107316;1275;22632;-86
2023/07/22 05:39:36;;;;;;;20.20;18.30;;;;;;;15.92;100.00;97574.20;107403;1275;24203;-88
2023/07/22 05:42:05;;;;;;;20.10;18.10;;;;;;;15.88;100.00;97575.08;107384;1275;22552;-87
2023/07/22 05:44:33;;;;;;;21.00;18.90;;;;;;;15.88;100.00;97574.76;107308;1275;25424;-86
2023/07/22 05:47:02;;;;;;;20.40;18.40;;;;;;;15.91;100.00;97569.41;107337;1275;22542;-86
2023/07/22 05:49:30;;;;;;;21.70;19.80;;;;;;;15.95;100.00;97568.05;107256;1259;22604;-86
2023/07/22 05:51:58;;;;;;;20.80;19.00;;;;;;;16.00;100.00;97568.16;107293;1275;22532;-86
2023/07/22 05:54:25;;;;;;;23.40;21.30;;;;;;;16.04;100.00;97558.55;107295;1275;22734;-85
2023/07/22 05:56:54;;;;;;;24.50;21.90;;;;;;;16.16;100.00;97568.95;107337;1275;22822;-85
2023/07/22 05:59:22;;;;;;;25.60;23.00;;;;;;;16.21;100.00;97574.76;107348;1274;25313;-83
2023/07/22 06:01:50;;;;;;;22.30;20.10;;;;;;;16.26;100.00;97576.14;107329;1274;24387;-84
2023/07/22 06:04:18;;;;;;;24.10;20.50;;;;;;;16.27;100.00;97576.87;107408;1274;22770;-84
2023/07/22 06:06:46;;;;;;;22.60;20.20;;;;;;;16.28;100.00;97577.53;107638;1274;22630;-82
2023/07/22 06:09:15;;;;;;;23.10;20.90;;;;;;;16.30;100.00;97583.31;107450;1274;22533;-82
2023/07/22 06:11:43;;;;;;;23.40;21.30;;;;;;;16.29;100.00;97594.80;107136;1274;22626;-82
2023/07/22 06:14:11;;;;;;;24.60;22.40;;;;;;;16.34;100.00;97602.40;107397;1274;22577;-84
2023/07/22 06:16:39;;;;;;;23.50;21.20;;;;;;;16.40;100.00;97599.92;107267;1274;24117;-83
2023/07/22 06:19:07;;;;;;;23.00;20.10;;;;;;;16.46;100.00;97603.61;107279;1274;22584;-86
2023/07/22 06:21:35;;;;;;;23.20;20.70;;;;;;;16.56;100.00;97602.32;107274;1274;22567;-84
2023/07/22 06:24:03;;;;;;;22.20;19.90;;;;;;;16.62;100.00;97598.61;107311;1274;23182;-84
2023/07/22 06:26:31;;;;;;;20.10;18.00;;;;;;;16.65;100.00;97598.23;107299;1274;22598;-84
2023/07/22 06:28:59;;;;;;;19.70;17.30;;;;;;;16.67;100.00;97598.91;107310;1274;25271;-85
2023/07/22 06:31:30;;;;;;;15.50;14.00;;;;;;;16.63;100.00;97602.69;107299;1274;25493;-84
2023/07/22 06:34:01;;;;;;;14.50;13.10;;;;;;;16.61;100.00;97609.08;107340;1274;26529;-88
2023/07/22 06:36:29;;;;;;;13.10;11.90;;;;;;;16.62;100.00;97604.54;107320;1274;23889;-85
2023/07/22 06:38:57;;;;;;;16.20;12.80;;;;;;;16.65;100.00;97604.23;107342;1274;22617;-85
2023/07/22 06:41:25;;;;;;;13.50;12.20;;;;;;;16.69;100.00;97605.60;107339;1270;22543;-85
2023/07/22 06:43:54;;;;;;;15.10;11.80;;;;;;;16.78;100.00;97610.13;107320;1274;22659;-85
2023/07/22 06:46:22;;;;;;;9.90;8.50;;;;;;;16.87;100.00;97608.75;107340;1274;22631;-85
2023/07/22 06:48:50;;;;;;;15.00;12.80;;;;;;;16.92;100.00;97611.99;107312;1274;22650;-83
2023/07/22 06:51:18;;;;;;;12.00;10.30;;;;;;;16.97;100.00;97613.00;107293;1275;22648;-85
2023/07/22 06:53:46;;;;;;;9.90;8.90;;;;;;;17.04;100.00;97616.91;107263;1275;22641;-84
2023/07/22 06:56:14;;;;;;;10.60;7.40;;;;;;;17.12;100.00;97617.69;107290;1275;24050;-83
2023/07/22 06:58:42;;;;;;;8.50;7.70;;;;;;;17.24;100.00;97618.21;107277;1274;23359;-84
2023/07/22 07:01:10;;;;;;;8.90;6.00;;;;;;;17.32;97.53;97621.77;107317;1252;25639;-84
2023/07/22 07:03:38;;;;;;;9.70;7.10;;;;;;;17.29;97.87;97619.90;107254;1275;23294;-84
2023/07/22 07:06:06;;;;;;;8.80;6.90;;;;;;;17.31;97.80;97622.21;107271;1275;25399;-83
2023/07/22 07:08:34;;;;;;;9.20;6.80;;;;;;;17.25;96.75;97624.23;107280;1275;22524;-84
2023/07/22 07:11:02;;;;;;;9.30;7.80;;;;;;;17.27;97.16;97624.20;107279;1275;24221;-84
2023/07/22 07:13:30;;;;;;;11.70;6.40;;;;;;;17.37;95.88;97614.27;107265;1275;22630;-85
2023/07/22 07:16:25;;;;;;;8.50;5.60;;;;;;;17.46;95.79;97615.05;107298;1275;22573;-83
2023/07/22 07:18:55;;;;;;;8.20;6.40;;;;;;;17.60;93.86;97615.71;107178;1267;24448;-87
2023/07/22 07:21:23;;;;;;;178.00;158.80;;;;;;;17.71;94.68;97623.23;107276;1269;24350;-82
2023/07/22 07:23:53;;;;;;;9.80;8.80;;;;;;;17.86;93.78;97624.00;107305;1268;22527;-82
2023/07/22 07:26:22;;;;;;;10.80;7.10;;;;;;;17.95;90.72;97629.58;107206;1269;22935;-83
2023/07/22 07:28:52;;;;;;;10.00;6.40;;;;;;;18.07;91.04;97634.70;107359;1251;25463;-83
2023/07/22 07:31:20;;;;;;;8.10;5.60;;;;;;;18.28;91.59;97640.23;107398;1267;22629;-83
2023/07/22 07:33:48;;;;;;;11.80;8.30;;;;;;;18.40;89.29;97645.48;107336;1267;24417;-82
2023/07/22 07:36:17;;;;;;;11.90;9.50;;;;;;;18.52;88.35;97648.02;107287;1274;24239;-82
2023/07/22 07:38:45;;;;;;;8.00;5.00;;;;;;;18.60;85.50;97644.44;107273;1274;22749;-83
2023/07/22 07:41:13;;;;;;;615.80;516.10;;;;;;;18.60;86.09;97648.42;107251;1274;22525;-83
2023/07/22 07:43:42;;;;;;;198.10;169.70;;;;;;;18.63;83.05;97647.23;107298;1274;22602;-85
2023/07/22 07:46:18;;;;;;;30.10;27.40;;;;;;;18.61;84.11;97652.48;107242;1274;22629;-85
2023/07/22 07:48:58;;;;;;;101.90;92.20;;;;;;;18.58;81.51;97653.59;107347;1274;24365;-85
2023/07/22 07:51:29;;;;;;;9.00;7.90;;;;;;;18.49;82.34;97659.17;107339;1274;25204;-86
2023/07/22 07:53:58;;;;;;;12.40;10.80;;;;;;;18.45;82.53;97660.30;107458;1274;22583;-84
2023/07/22 07:56:27;;;;;;;18.70;16.80;;;;;;;18.53;82.99;97658.00;107376;1275;24368;-86
2023/07/22 07:58:55;;;;;;;11.20;7.10;;;;;;;18.72;82.58;97661.61;107334;1274;25444;-85
2023/07/22 08:01:23;;;;;;;11.50;5.20;;;;;;;18.78;81.49;97666.13;107381;1274;22668;-83
2023/07/22 08:03:51;;;;;;;8.90;6.40;;;;;;;18.86;80.76;97667.09;107186;1275;24388;-83
2023/07/22 08:06:20;;;;;;;8.20;6.30;;;;;;;18.91;81.46;97667.48;107408;1269;24328;-81
2023/07/22 08:08:48;;;;;;;9.30;4.80;;;;;;;18.96;81.28;97676.41;107309;1274;22531;-82
2023/07/22 08:11:16;;;;;;;8.80;6.70;;;;;;;18.97;78.83;97679.06;107212;1274;24200;-76
2023/07/22 08:13:44;;;;;;;6.80;4.90;;;;;;;18.96;77.44;97684.20;107191;1272;24230;-77
2023/07/22 08:16:13;;;;;;;8.40;5.60;;;;;;;19.12;75.78;97687.95;106869;1253;22518;-80
2023/07/22 08:18:42;;;;;;;5.90;4.50;;;;;;;19.22;74.10;97690.80;107224;1268;22601;-81
2023/07/22 08:21:11;;;;;;;5.10;4.20;;;;;;;19.29;74.19;97692.81;107612;1268;24229;-81
2023/07/22 08:23:39;;;;;;;7.20;5.60;;;;;;;19.30;73.53;97697.74;106819;1262;24336;-83
2023/07/22 08:26:07;;;;;;;7.60;4.90;;;;;;;19.20;73.73;97705.22;107273;1274;24254;-79
2023/07/22 08:28:35;;;;;;;11.20;7.70;;;;;;;19.23;73.84;97700.97;107253;1274;24251;-80
2023/07/22 08:31:03;;;;;;;6.90;4.90;;;;;;;19.31;73.97;97703.40;107366;1274;22670;-79
2023/07/22 08:33:31;;;;;;;5.30;4.80;;;;;;;19.43;75.02;97705.42;107386;1274;25328;-80
2023/07/22 08:36:02;;;;;;;8.20;5.10;;;;;;;19.61;73.29;97713.09;107335;1274;22531;-82
2023/07/22 08:38:31;;;;;;;6.00;4.40;;;;;;;19.72;73.35;97711.91;106948;1274;22606;-80
2023/07/22 08:40:59;;;;;;;65.50;59.80;;;;;;;19.68;73.45;97715.44;107343;1274;22735;-80
2023/07/22 08:43:29;;;;;;;60.80;55.50;;;;;;;19.61;72.20;97720.67;107325;1274;25222;-77
2023/07/22 08:46:00;;;;;;;7.10;5.20;;;;;;;19.59;71.43;97724.84;107054;1275;22528;-78
2023/07/22 08:48:36;;;;;;;6.00;4.40;;;;;;;19.54;70.61;97731.38;107052;1275;24202;-77
2023/07/22 08:51:10;;;;;;;5.70;4.40;;;;;;;19.47;71.46;97726.98;107420;1275;25397;-79
2023/07/22 08:53:38;;;;;;;4.90;3.50;;;;;;;19.47;72.64;97722.76;107310;1275;25332;-78
2023/07/22 08:56:07;;;;;;;6.00;4.60;;;;;;;19.45;71.58;97728.80;107332;1268;25279;-78
2023/07/22 08:58:36;;;;;;;5.40;3.40;;;;;;;19.40;71.79;97729.17;107370;1266;23011;-79
2023/07/22 09:01:05;;;;;;;6.00;3.60;;;;;;;19.36;71.37;97733.31;107271;1274;23197;-78
2023/07/22 09:03:33;;;;;;;3.90;3.30;;;;;;;19.36;71.37;97737.59;107369;1274;22662;-78
2023/07/22 09:06:04;;;;;;;6.30;3.60;;;;;;;19.31;70.86;97732.73;106991;1274;22520;-78
2023/07/22 09:08:33;;;;;;;4.80;3.50;;;;;;;19.31;69.53;97748.29;106994;1274;22548;-78
2023/07/22 09:11:02;;;;;;;7.90;3.60;;;;;;;19.22;69.42;97749.11;106912;1274;25265;-78
2023/07/22 09:13:31;;;;;;;5.00;3.40;;;;;;;19.18;69.35;97755.34;106960;1274;22765;-78
2023/07/22 09:15:59;;;;;;;3.90;3.50;;;;;;;19.12;69.09;97760.29;106924;1274;22598;-78
2023/07/22 09:18:27;;;;;;;7.00;3.70;;;;;;;19.19;69.50;97759.49;107300;1274;25457;-80
2023/07/22 09:20:55;;;;;;;4.70;3.60;;;;;;;19.39;69.62;97756.85;107193;1274;22536;-80
2023/07/22 09:23:34;;;;;;;5.20;3.70;;;;;;;19.63;69.04;97759.13;106895;1260;22741;-80
2023/07/22 09:26:13;;;;;;;4.30;3.40;;;;;;;19.85;68.66;97758.16;107259;1275;25257;-80
2023/07/22 09:28:55;;;;;;;4.20;3.50;;;;;;;19.92;68.74;97753.83;107227;1275;23907;-80
2023/07/22 09:31:27;;;;;;;5.20;3.50;;;;;;;19.91;68.47;97758.42;107189;1275;22591;-80
2023/07/22 09:34:09;;;;;;;7.50;3.40;;;;;;;19.91;67.48;97753.89;107128;1275;23159;-79
2023/07/22 09:36:54;;;;;;;6.40;3.50;;;;;;;20.05;68.46;97756.02;107220;1272;22577;-81
2023/07/22 09:39:26;;;;;;;3.30;2.90;;;;;;;20.34;65.98;97763.27;107201;1275;22532;-80
2023/07/22 09:41:54;;;;;;;4.10;2.90;;;;;;;20.40;64.80;97758.92;107259;1275;23279;-81
2023/07/22 09:44:22;;;;;;;4.40;3.00;;;;;;;20.50;63.18;97751.33;107213;1274;24233;-81
2023/07/22 09:46:50;;;;;;;5.40;2.80;;;;;;;20.62;63.18;97755.78;107297;1270;24040;-81
2023/07/22 09:49:19;;;;;;;4.20;3.40;;;;;;;20.77;64.19;97745.59;107187;1269;24432;-80
2023/07/22 09:51:47;;;;;;;5.10;3.50;;;;;;;20.91;63.81;97750.63;106993;1267;22567;-82
2023/07/22 09:54:30;;;;;;;3.00;2.50;;;;;;;21.03;61.22;97756.51;107297;1274;22647;-80
2023/07/22 09:56:59;;;;;;;4.00;2.50;;;;;;;21.09;61.02;97754.48;107220;1274;22535;-80
2023/07/22 09:59:29;;;;;;;5.80;3.00;;;;;;;21.28;61.83;97753.85;107225;1274;22642;-81
2023/07/22 10:02:02;;;;;;;3.50;2.70;;;;;;;21.37;59.90;97750.83;107096;1275;22657;-81
2023/07/22 10:04:34;;;;;;;5.00;2.90;;;;;;;21.17;60.15;97752.22;107290;1275;23506;-81
2023/07/22 10:07:05;;;;;;;8.10;2.90;;;;;;;21.10;60.57;97754.02;107214;1275;22939;-81
2023/07/22 10:09:37;;;;;;;6.10;2.80;;;;;;;21.24;61.46;97752.70;107259;1275;24335;-81
2023/07/22 10:12:05;;;;;;;5.10;3.40;;;;;;;21.29;61.89;97751.29;107230;1275;24227;-81
2023/07/22 10:14:34;;;;;;;3.90;2.90;;;;;;;21.23;60.63;97755.42;107201;1275;22524;-80
2023/07/22 10:17:07;;;;;;;5.90;3.20;;;;;;;21.08;60.43;97757.12;107272;1275;25417;-80
2023/07/22 10:19:35;;;;;;;2.90;2.40;;;;;;;21.09;60.83;97756.66;107219;1275;22636;-82
2023/07/22 10:22:04;;;;;;;4.70;3.20;;;;;;;21.31;61.71;97749.12;107274;1275;22968;-81
2023/07/22 10:24:32;;;;;;;3.80;2.90;;;;;;;21.60;59.28;97752.69;107467;1268;25389;-79
2023/07/22 10:27:00;;;;;;;5.60;3.10;;;;;;;21.71;58.55;97753.90;107040;1274;22546;-80
2023/07/22 10:29:29;;;;;;;4.40;2.70;;;;;;;21.77;57.53;97752.79;107220;1275;24227;-80
2023/07/22 10:31:57;;;;;;;3.50;2.80;;;;;;;21.75;57.99;97746.58;107239;1275;22545;-80
2023/07/22 10:34:26;;;;;;;4.60;2.80;;;;;;;21.87;56.47;97752.48;107232;1275;22524;-79
2023/07/22 10:36:58;;;;;;;5.10;2.40;;;;;;;21.70;54.91;97759.36;106905;1275;25391;-81
2023/07/22 10:39:28;;;;;;;4.70;2.80;;;;;;;21.51;55.66;97751.19;107310;1275;24160;-79
2023/07/22 10:42:04;;;;;;;4.20;2.80;;;;;;;21.44;56.57;97755.00;107249;1275;23193;-80
2023/07/22 10:44:36;;;;;;;6.30;2.60;;;;;;;21.50;56.70;97753.66;107336;1275;22565;-80
2023/07/22 10:47:04;;;;;;;3.60;2.90;;;;;;;21.64;55.95;97750.86;107329;1275;22564;-80
2023/07/22 10:49:48;;;;;;;10.10;3.30;;;;;;;21.72;55.41;97745.38;107296;1275;25396;-80
2023/07/22 10:52:43;;;;;;;6.30;3.30;;;;;;;21.85;54.69;97744.56;107256;1275;22517;-80
2023/07/22 10:55:16;;;;;;;4.00;2.80;;;;;;;22.15;54.38;97744.08;107275;1275;22783;-80
2023/07/22 10:57:49;;;;;;;5.00;2.70;;;;;;;22.26;53.41;97746.67;107235;1275;22536;-79
2023/07/22 11:00:20;;;;;;;6.40;3.30;;;;;;;22.41;54.16;97744.91;107077;1275;22716;-81
2023/07/22 11:03:14;;;;;;;5.20;3.20;;;;;;;22.61;54.35;97749.77;106985;1275;22563;-82
2023/07/22 11:05:55;;;;;;;6.30;2.90;;;;;;;22.77;53.24;97753.48;107245;1275;22507;-81
2023/07/22 11:08:41;;;;;;;5.90;2.70;;;;;;;22.85;53.29;97749.84;107294;1275;22629;-80
2023/07/22 11:11:11;;;;;;;4.30;2.80;;;;;;;22.78;52.08;97754.75;107266;1275;22531;-81
2023/07/22 11:13:41;;;;;;;4.10;2.70;;;;;;;22.81;52.87;97751.40;107199;1275;24381;-81
2023/07/22 11:16:12;;;;;;;4.20;2.90;;;;;;;22.98;51.17;97749.70;107078;1275;22535;-81
2023/07/22 11:18:41;;;;;;;4.90;2.60;;;;;;;22.80;51.17;97758.83;107141;1275;24448;-81
2023/07/22 11:21:11;;;;;;;3.90;2.50;;;;;;;22.62;52.18;97761.79;107224;1269;23924;-81
2023/07/22 11:23:39;;;;;;;4.40;2.80;;;;;;;22.49;51.93;97762.23;107250;1275;22562;-81
2023/07/22 11:26:07;;;;;;;3.90;3.20;;;;;;;22.54;52.22;97756.16;107262;1275;22785;-82